Main page
METAR-TAF:

METAR-TAF

Airports :

Strasbourg Airport

Strasbourg, France

latitude: 48-33N, longitude: 007-38E, elevation: 153 m

Current weather observation

The report was made 23 minutes ago, at 23:00 UTC
Wind 10 kt from the North/Northeast
Temperature 17°C
Humidity 39%
Pressure 999 hPa
Visibility 10 km or more
no clouds below 1500 m and no cumulonimbus

METAR: LFST 222300Z AUTO 02010KT CAVOK 17/03 Q0999 NOSIG

Time: 01:23 (23:23 UTC)

Forecast

The report was made 6 hours and 23 minutes ago, at 17:00 UTC
Forecast valid from 22 at 18 UTC to 23 at 18 UTC
Wind 8 kt from the Northeast
Visibility 10 km or more
no clouds below 1500 m and no cumulonimbus
Becoming
from 23 at 12 UTC to 23 at 13 UTC
Wind 5 kt from the South
Temporary
from 23 at 15 UTC to 23 at 18 UTC
Few clouds at a height of 9000 ft, Towering cumulus.

TAF: LFST 221700Z 2218/2318 04008KT CAVOK BECMG 2312/2313 18005KT TEMPO 2315/2318 FEW090TCU

Weather observations and forecasts of more than 4000 airports (METAR and TAF reports).

The available stations are represented by yellow and red dots on the map.

Hover mouse over dot to see the name of the station.

Then click to see weather observations and forecasts.

To change the map : click on the green buttons with a black cross to zoom in, on the green button with a dash to zoom out, or on the green arrows for adjacent maps.


METAR-TAF: